Terminal Aerodrome Forecast
Issued by NWS

Home | Current Version | Previous Version | Graphics & Text | Print | Product List | Glossary On
Versions: 1 2 3 4 5 6 7 8 9 10 11 12 13 14
000
FTUS43 KICT 221100
TAFCNU
TAF
KCNU 221140Z 2212/2312 01005KT P6SM SKC
     FM221700 06009KT P6SM SKC
     FM222300 10007KT P6SM SKC=

USA.gov is the U.S. government's official web portal to all federal, state and local government web resources and services.